sensor_id;sensor_type;location;lat;lon;timestamp;P1;durP1;ratioP1;P2;durP2;ratioP2
71937;SDS011;59810;48.800;9.086;2023-06-14T00:00:03;6.63;;;3.30;;
71937;SDS011;59810;48.800;9.086;2023-06-14T00:02:32;6.33;;;2.93;;
71937;SDS011;59810;48.800;9.086;2023-06-14T00:04:57;8.05;;;3.13;;
71937;SDS011;59810;48.800;9.086;2023-06-14T00:07:35;8.00;;;3.13;;
71937;SDS011;59810;48.800;9.086;2023-06-14T00:10:03;11.05;;;3.45;;
71937;SDS011;59810;48.800;9.086;2023-06-14T00:12:30;7.28;;;3.17;;
71937;SDS011;59810;48.800;9.086;2023-06-14T00:14:56;7.50;;;2.90;;
71937;SDS011;59810;48.800;9.086;2023-06-14T00:17:22;6.43;;;3.20;;
71937;SDS011;59810;48.800;9.086;2023-06-14T00:19:49;7.53;;;3.17;;
71937;SDS011;59810;48.800;9.086;2023-06-14T00:22:15;7.13;;;2.93;;
71937;SDS011;59810;48.800;9.086;2023-06-14T00:24:40;7.60;;;3.03;;
71937;SDS011;59810;48.800;9.086;2023-06-14T00:27:06;7.80;;;3.20;;
71937;SDS011;59810;48.800;9.086;2023-06-14T00:29:31;7.07;;;3.20;;
71937;SDS011;59810;48.800;9.086;2023-06-14T00:31:56;8.57;;;3.17;;
71937;SDS011;59810;48.800;9.086;2023-06-14T00:34:24;7.13;;;3.35;;
71937;SDS011;59810;48.800;9.086;2023-06-14T00:36:52;8.00;;;3.30;;
71937;SDS011;59810;48.800;9.086;2023-06-14T00:39:17;7.40;;;3.03;;
71937;SDS011;59810;48.800;9.086;2023-06-14T00:41:43;7.27;;;3.13;;
71937;SDS011;59810;48.800;9.086;2023-06-14T00:44:08;11.37;;;3.00;;
71937;SDS011;59810;48.800;9.086;2023-06-14T00:46:33;6.17;;;3.03;;
71937;SDS011;59810;48.800;9.086;2023-06-14T00:48:58;7.37;;;3.00;;
71937;SDS011;59810;48.800;9.086;2023-06-14T00:51:28;7.93;;;3.10;;
71937;SDS011;59810;48.800;9.086;2023-06-14T00:53:53;7.80;;;2.83;;
71937;SDS011;59810;48.800;9.086;2023-06-14T00:56:19;6.28;;;3.05;;
71937;SDS011;59810;48.800;9.086;2023-06-14T00:58:45;7.25;;;3.00;;
71937;SDS011;59810;48.800;9.086;2023-06-14T01:01:11;9.73;;;3.70;;
71937;SDS011;59810;48.800;9.086;2023-06-14T01:03:39;7.72;;;3.22;;
71937;SDS011;59810;48.800;9.086;2023-06-14T01:06:55;6.47;;;3.42;;
71937;SDS011;59810;48.800;9.086;2023-06-14T01:09:07;5.60;;;2.87;;
71937;SDS011;59810;48.800;9.086;2023-06-14T01:11:38;7.25;;;3.30;;
71937;SDS011;59810;48.800;9.086;2023-06-14T01:14:12;7.03;;;3.20;;
71937;SDS011;59810;48.800;9.086;2023-06-14T01:16:39;6.88;;;3.30;;
71937;SDS011;59810;48.800;9.086;2023-06-14T01:19:05;6.80;;;3.20;;
71937;SDS011;59810;48.800;9.086;2023-06-14T01:21:37;7.67;;;3.10;;
71937;SDS011;59810;48.800;9.086;2023-06-14T01:24:10;8.35;;;3.30;;
71937;SDS011;59810;48.800;9.086;2023-06-14T01:26:36;6.57;;;2.80;;
71937;SDS011;59810;48.800;9.086;2023-06-14T01:29:03;9.27;;;3.90;;
71937;SDS011;59810;48.800;9.086;2023-06-14T01:31:29;6.57;;;3.22;;
71937;SDS011;59810;48.800;9.086;2023-06-14T01:34:04;8.53;;;3.10;;
71937;SDS011;59810;48.800;9.086;2023-06-14T01:36:33;6.97;;;3.03;;
71937;SDS011;59810;48.800;9.086;2023-06-14T01:39:06;9.55;;;3.40;;
71937;SDS011;59810;48.800;9.086;2023-06-14T01:41:33;7.38;;;3.22;;
71937;SDS011;59810;48.800;9.086;2023-06-14T01:44:00;7.38;;;3.25;;
71937;SDS011;59810;48.800;9.086;2023-06-14T01:46:26;6.77;;;3.10;;
71937;SDS011;59810;48.800;9.086;2023-06-14T01:48:52;6.65;;;3.20;;
71937;SDS011;59810;48.800;9.086;2023-06-14T01:51:17;8.40;;;3.33;;
71937;SDS011;59810;48.800;9.086;2023-06-14T01:53:42;7.83;;;3.50;;
71937;SDS011;59810;48.800;9.086;2023-06-14T01:56:08;7.43;;;3.00;;
71937;SDS011;59810;48.800;9.086;2023-06-14T01:58:33;7.90;;;3.30;;
71937;SDS011;59810;48.800;9.086;2023-06-14T02:00:59;7.35;;;3.13;;
71937;SDS011;59810;48.800;9.086;2023-06-14T02:03:25;7.17;;;3.20;;
71937;SDS011;59810;48.800;9.086;2023-06-14T02:05:50;8.15;;;3.85;;
71937;SDS011;59810;48.800;9.086;2023-06-14T02:08:16;7.70;;;3.20;;
71937;SDS011;59810;48.800;9.086;2023-06-14T02:10:41;6.97;;;3.30;;
71937;SDS011;59810;48.800;9.086;2023-06-14T02:13:06;8.23;;;3.13;;
71937;SDS011;59810;48.800;9.086;2023-06-14T02:15:32;7.77;;;3.03;;
71937;SDS011;59810;48.800;9.086;2023-06-14T02:18:03;7.78;;;3.03;;
71937;SDS011;59810;48.800;9.086;2023-06-14T02:20:30;7.53;;;3.58;;
71937;SDS011;59810;48.800;9.086;2023-06-14T02:22:56;7.85;;;3.13;;
71937;SDS011;59810;48.800;9.086;2023-06-14T02:25:22;7.90;;;3.13;;
71937;SDS011;59810;48.800;9.086;2023-06-14T02:27:48;6.10;;;3.05;;
71937;SDS011;59810;48.800;9.086;2023-06-14T02:30:13;7.40;;;3.40;;
71937;SDS011;59810;48.800;9.086;2023-06-14T02:32:40;7.07;;;3.17;;
71937;SDS011;59810;48.800;9.086;2023-06-14T02:35:07;8.03;;;3.50;;
71937;SDS011;59810;48.800;9.086;2023-06-14T02:37:35;9.98;;;4.18;;
71937;SDS011;59810;48.800;9.086;2023-06-14T02:40:04;11.18;;;4.65;;
71937;SDS011;59810;48.800;9.086;2023-06-14T02:42:31;13.77;;;5.75;;
71937;SDS011;59810;48.800;9.086;2023-06-14T02:44:56;10.33;;;4.80;;
71937;SDS011;59810;48.800;9.086;2023-06-14T02:47:22;9.50;;;4.70;;
71937;SDS011;59810;48.800;9.086;2023-06-14T02:49:47;10.82;;;4.57;;
71937;SDS011;59810;48.800;9.086;2023-06-14T02:52:12;7.60;;;4.53;;
71937;SDS011;59810;48.800;9.086;2023-06-14T02:54:40;10.40;;;4.30;;
71937;SDS011;59810;48.800;9.086;2023-06-14T02:57:06;7.00;;;3.93;;
71937;SDS011;59810;48.800;9.086;2023-06-14T02:59:34;13.23;;;4.32;;
71937;SDS011;59810;48.800;9.086;2023-06-14T03:02:00;8.02;;;3.90;;
71937;SDS011;59810;48.800;9.086;2023-06-14T03:04:25;7.37;;;3.90;;
71937;SDS011;59810;48.800;9.086;2023-06-14T03:06:52;8.80;;;4.00;;
71937;SDS011;59810;48.800;9.086;2023-06-14T03:09:21;7.68;;;3.67;;
71937;SDS011;59810;48.800;9.086;2023-06-14T03:11:49;7.63;;;3.80;;
71937;SDS011;59810;48.800;9.086;2023-06-14T03:14:14;8.68;;;3.75;;
71937;SDS011;59810;48.800;9.086;2023-06-14T03:16:40;7.23;;;3.67;;
71937;SDS011;59810;48.800;9.086;2023-06-14T03:19:06;11.07;;;3.70;;
71937;SDS011;59810;48.800;9.086;2023-06-14T03:21:34;9.80;;;4.03;;
71937;SDS011;59810;48.800;9.086;2023-06-14T03:23:59;9.60;;;3.38;;
71937;SDS011;59810;48.800;9.086;2023-06-14T03:26:28;10.30;;;3.50;;
71937;SDS011;59810;48.800;9.086;2023-06-14T03:28:56;7.72;;;3.70;;
71937;SDS011;59810;48.800;9.086;2023-06-14T03:31:21;7.95;;;3.88;;
71937;SDS011;59810;48.800;9.086;2023-06-14T03:33:48;7.40;;;3.47;;
71937;SDS011;59810;48.800;9.086;2023-06-14T03:36:14;8.50;;;3.70;;
71937;SDS011;59810;48.800;9.086;2023-06-14T03:38:42;11.23;;;3.47;;
71937;SDS011;59810;48.800;9.086;2023-06-14T03:41:08;8.07;;;3.15;;
71937;SDS011;59810;48.800;9.086;2023-06-14T03:43:33;9.57;;;3.77;;
71937;SDS011;59810;48.800;9.086;2023-06-14T03:46:04;10.40;;;4.18;;
71937;SDS011;59810;48.800;9.086;2023-06-14T03:48:29;9.37;;;3.77;;
71937;SDS011;59810;48.800;9.086;2023-06-14T03:50:55;11.20;;;4.20;;
71937;SDS011;59810;48.800;9.086;2023-06-14T03:53:21;10.83;;;4.30;;
71937;SDS011;59810;48.800;9.086;2023-06-14T03:55:48;9.55;;;4.90;;
71937;SDS011;59810;48.800;9.086;2023-06-14T03:58:15;7.68;;;3.92;;
71937;SDS011;59810;48.800;9.086;2023-06-14T04:00:41;8.73;;;4.03;;
71937;SDS011;59810;48.800;9.086;2023-06-14T04:03:06;7.97;;;3.90;;
71937;SDS011;59810;48.800;9.086;2023-06-14T04:05:31;9.40;;;4.00;;
71937;SDS011;59810;48.800;9.086;2023-06-14T04:07:59;7.60;;;3.60;;
71937;SDS011;59810;48.800;9.086;2023-06-14T04:10:26;8.60;;;3.85;;
71937;SDS011;59810;48.800;9.086;2023-06-14T04:12:51;10.93;;;4.00;;
71937;SDS011;59810;48.800;9.086;2023-06-14T04:15:17;9.80;;;4.77;;
71937;SDS011;59810;48.800;9.086;2023-06-14T04:17:43;9.60;;;4.30;;
71937;SDS011;59810;48.800;9.086;2023-06-14T04:20:11;8.90;;;4.18;;
71937;SDS011;59810;48.800;9.086;2023-06-14T04:22:39;9.27;;;4.20;;
71937;SDS011;59810;48.800;9.086;2023-06-14T04:25:08;8.60;;;4.25;;
71937;SDS011;59810;48.800;9.086;2023-06-14T04:27:33;8.38;;;3.97;;
71937;SDS011;59810;48.800;9.086;2023-06-14T04:30:01;7.63;;;3.45;;
71937;SDS011;59810;48.800;9.086;2023-06-14T04:32:29;9.32;;;3.30;;
71937;SDS011;59810;48.800;9.086;2023-06-14T04:35:07;7.17;;;3.47;;
71937;SDS011;59810;48.800;9.086;2023-06-14T04:37:33;9.23;;;3.55;;
71937;SDS011;59810;48.800;9.086;2023-06-14T04:39:59;7.95;;;3.90;;
71937;SDS011;59810;48.800;9.086;2023-06-14T04:42:25;7.82;;;3.70;;
71937;SDS011;59810;48.800;9.086;2023-06-14T04:44:56;5.77;;;3.03;;
71937;SDS011;59810;48.800;9.086;2023-06-14T04:47:24;7.95;;;3.20;;
71937;SDS011;59810;48.800;9.086;2023-06-14T04:49:54;9.45;;;3.65;;
71937;SDS011;59810;48.800;9.086;2023-06-14T04:52:20;9.45;;;3.35;;
71937;SDS011;59810;48.800;9.086;2023-06-14T04:54:51;7.30;;;3.55;;
71937;SDS011;59810;48.800;9.086;2023-06-14T04:57:19;8.87;;;3.77;;
71937;SDS011;59810;48.800;9.086;2023-06-14T04:59:47;10.23;;;3.97;;
71937;SDS011;59810;48.800;9.086;2023-06-14T05:02:13;9.07;;;4.60;;
71937;SDS011;59810;48.800;9.086;2023-06-14T05:04:39;8.65;;;4.35;;
71937;SDS011;59810;48.800;9.086;2023-06-14T05:07:07;11.43;;;4.47;;
71937;SDS011;59810;48.800;9.086;2023-06-14T05:09:33;7.68;;;4.45;;
71937;SDS011;59810;48.800;9.086;2023-06-14T05:11:59;8.00;;;4.10;;
71937;SDS011;59810;48.800;9.086;2023-06-14T05:14:25;9.45;;;4.40;;
71937;SDS011;59810;48.800;9.086;2023-06-14T05:16:53;10.68;;;4.20;;
71937;SDS011;59810;48.800;9.086;2023-06-14T05:19:19;8.60;;;4.00;;
71937;SDS011;59810;48.800;9.086;2023-06-14T05:21:47;8.80;;;4.43;;
71937;SDS011;59810;48.800;9.086;2023-06-14T05:24:13;12.20;;;4.23;;
71937;SDS011;59810;48.800;9.086;2023-06-14T05:26:42;8.02;;;4.07;;
71937;SDS011;59810;48.800;9.086;2023-06-14T05:29:08;11.52;;;4.13;;
71937;SDS011;59810;48.800;9.086;2023-06-14T05:31:34;11.77;;;4.60;;
71937;SDS011;59810;48.800;9.086;2023-06-14T05:33:59;8.23;;;4.10;;
71937;SDS011;59810;48.800;9.086;2023-06-14T05:36:25;11.47;;;4.30;;
71937;SDS011;59810;48.800;9.086;2023-06-14T05:38:53;8.93;;;3.97;;
71937;SDS011;59810;48.800;9.086;2023-06-14T05:41:27;10.82;;;4.55;;
71937;SDS011;59810;48.800;9.086;2023-06-14T05:43:54;8.60;;;4.47;;
71937;SDS011;59810;48.800;9.086;2023-06-14T05:46:20;7.53;;;4.00;;
71937;SDS011;59810;48.800;9.086;2023-06-14T05:48:47;8.90;;;4.07;;
71937;SDS011;59810;48.800;9.086;2023-06-14T05:51:13;8.65;;;4.75;;
71937;SDS011;59810;48.800;9.086;2023-06-14T05:53:39;9.90;;;4.70;;
71937;SDS011;59810;48.800;9.086;2023-06-14T05:56:05;7.50;;;4.10;;
71937;SDS011;59810;48.800;9.086;2023-06-14T05:58:30;7.43;;;4.40;;
71937;SDS011;59810;48.800;9.086;2023-06-14T06:00:55;8.63;;;4.13;;
71937;SDS011;59810;48.800;9.086;2023-06-14T06:03:22;9.65;;;4.10;;
71937;SDS011;59810;48.800;9.086;2023-06-14T06:05:47;9.27;;;4.20;;
71937;SDS011;59810;48.800;9.086;2023-06-14T06:08:13;10.80;;;4.10;;
71937;SDS011;59810;48.800;9.086;2023-06-14T06:10:38;8.93;;;4.20;;
71937;SDS011;59810;48.800;9.086;2023-06-14T06:13:04;9.33;;;4.23;;
71937;SDS011;59810;48.800;9.086;2023-06-14T06:15:29;9.23;;;5.00;;
71937;SDS011;59810;48.800;9.086;2023-06-14T06:17:57;8.83;;;4.73;;
71937;SDS011;59810;48.800;9.086;2023-06-14T06:20:23;10.77;;;5.17;;
71937;SDS011;59810;48.800;9.086;2023-06-14T06:22:53;9.02;;;4.32;;
71937;SDS011;59810;48.800;9.086;2023-06-14T06:25:23;10.40;;;4.50;;
71937;SDS011;59810;48.800;9.086;2023-06-14T06:27:50;13.65;;;4.45;;
71937;SDS011;59810;48.800;9.086;2023-06-14T06:30:21;13.60;;;5.47;;
71937;SDS011;59810;48.800;9.086;2023-06-14T06:32:46;9.70;;;4.10;;
71937;SDS011;59810;48.800;9.086;2023-06-14T06:35:12;11.55;;;5.07;;
71937;SDS011;59810;48.800;9.086;2023-06-14T06:37:38;10.13;;;4.80;;
71937;SDS011;59810;48.800;9.086;2023-06-14T06:40:06;8.23;;;4.80;;
71937;SDS011;59810;48.800;9.086;2023-06-14T06:42:32;8.70;;;4.30;;
71937;SDS011;59810;48.800;9.086;2023-06-14T06:44:57;8.47;;;4.73;;
71937;SDS011;59810;48.800;9.086;2023-06-14T06:47:23;9.73;;;4.63;;
71937;SDS011;59810;48.800;9.086;2023-06-14T06:49:49;8.93;;;4.90;;
71937;SDS011;59810;48.800;9.086;2023-06-14T06:52:15;8.40;;;4.60;;
71937;SDS011;59810;48.800;9.086;2023-06-14T06:54:40;9.57;;;4.90;;
71937;SDS011;59810;48.800;9.086;2023-06-14T06:57:06;8.63;;;4.50;;
71937;SDS011;59810;48.800;9.086;2023-06-14T06:59:31;9.18;;;4.57;;
71937;SDS011;59810;48.800;9.086;2023-06-14T07:01:59;11.03;;;4.80;;
71937;SDS011;59810;48.800;9.086;2023-06-14T07:04:25;9.77;;;4.13;;
71937;SDS011;59810;48.800;9.086;2023-06-14T07:06:50;8.40;;;4.90;;
71937;SDS011;59810;48.800;9.086;2023-06-14T07:09:20;12.33;;;4.60;;
71937;SDS011;59810;48.800;9.086;2023-06-14T07:11:46;9.02;;;4.20;;
71937;SDS011;59810;48.800;9.086;2023-06-14T07:14:12;10.50;;;4.93;;
71937;SDS011;59810;48.800;9.086;2023-06-14T07:16:38;9.63;;;4.37;;
71937;SDS011;59810;48.800;9.086;2023-06-14T07:19:03;10.55;;;4.20;;
71937;SDS011;59810;48.800;9.086;2023-06-14T07:21:29;10.47;;;4.63;;
71937;SDS011;59810;48.800;9.086;2023-06-14T07:23:55;9.27;;;4.65;;
71937;SDS011;59810;48.800;9.086;2023-06-14T07:26:24;9.90;;;4.60;;
71937;SDS011;59810;48.800;9.086;2023-06-14T07:28:50;8.27;;;4.70;;
71937;SDS011;59810;48.800;9.086;2023-06-14T07:31:16;8.52;;;4.50;;
71937;SDS011;59810;48.800;9.086;2023-06-14T07:33:44;9.23;;;4.60;;
71937;SDS011;59810;48.800;9.086;2023-06-14T07:36:10;10.27;;;5.03;;
71937;SDS011;59810;48.800;9.086;2023-06-14T07:38:36;8.60;;;4.60;;
71937;SDS011;59810;48.800;9.086;2023-06-14T07:41:01;8.88;;;4.32;;
71937;SDS011;59810;48.800;9.086;2023-06-14T07:43:27;9.20;;;4.50;;
71937;SDS011;59810;48.800;9.086;2023-06-14T07:45:52;8.00;;;4.00;;
71937;SDS011;59810;48.800;9.086;2023-06-14T07:48:20;9.88;;;4.25;;
71937;SDS011;59810;48.800;9.086;2023-06-14T07:50:46;6.90;;;4.10;;
71937;SDS011;59810;48.800;9.086;2023-06-14T07:53:13;10.27;;;4.15;;
71937;SDS011;59810;48.800;9.086;2023-06-14T07:55:39;7.20;;;4.18;;
71937;SDS011;59810;48.800;9.086;2023-06-14T07:58:08;7.43;;;4.20;;
71937;SDS011;59810;48.800;9.086;2023-06-14T08:00:33;7.07;;;3.90;;
71937;SDS011;59810;48.800;9.086;2023-06-14T08:02:59;7.82;;;4.35;;
71937;SDS011;59810;48.800;9.086;2023-06-14T08:05:29;8.70;;;4.03;;
71937;SDS011;59810;48.800;9.086;2023-06-14T08:07:54;10.60;;;4.35;;
71937;SDS011;59810;48.800;9.086;2023-06-14T08:10:21;7.73;;;4.00;;
71937;SDS011;59810;48.800;9.086;2023-06-14T08:12:48;8.10;;;3.78;;
71937;SDS011;59810;48.800;9.086;2023-06-14T08:15:15;7.68;;;3.78;;
71937;SDS011;59810;48.800;9.086;2023-06-14T08:17:42;7.78;;;3.92;;
71937;SDS011;59810;48.800;9.086;2023-06-14T08:20:08;11.23;;;3.95;;
71937;SDS011;59810;48.800;9.086;2023-06-14T08:22:35;7.77;;;3.60;;
71937;SDS011;59810;48.800;9.086;2023-06-14T08:25:02;7.90;;;4.60;;
71937;SDS011;59810;48.800;9.086;2023-06-14T08:27:29;8.82;;;4.65;;
71937;SDS011;59810;48.800;9.086;2023-06-14T08:29:54;8.52;;;4.03;;
71937;SDS011;59810;48.800;9.086;2023-06-14T08:32:21;11.23;;;4.30;;
71937;SDS011;59810;48.800;9.086;2023-06-14T08:34:47;7.70;;;4.17;;
71937;SDS011;59810;48.800;9.086;2023-06-14T08:37:12;9.25;;;4.10;;
71937;SDS011;59810;48.800;9.086;2023-06-14T08:39:38;8.38;;;4.85;;
71937;SDS011;59810;48.800;9.086;2023-06-14T08:42:04;8.30;;;4.20;;
71937;SDS011;59810;48.800;9.086;2023-06-14T08:44:35;9.68;;;4.75;;
71937;SDS011;59810;48.800;9.086;2023-06-14T08:47:00;8.23;;;4.40;;
71937;SDS011;59810;48.800;9.086;2023-06-14T08:49:28;10.40;;;4.65;;
71937;SDS011;59810;48.800;9.086;2023-06-14T08:51:59;8.57;;;4.10;;
71937;SDS011;59810;48.800;9.086;2023-06-14T08:54:29;9.77;;;4.40;;
71937;SDS011;59810;48.800;9.086;2023-06-14T08:56:59;8.20;;;4.25;;
71937;SDS011;59810;48.800;9.086;2023-06-14T08:59:28;10.32;;;4.90;;
71937;SDS011;59810;48.800;9.086;2023-06-14T09:01:54;7.88;;;4.20;;
71937;SDS011;59810;48.800;9.086;2023-06-14T09:04:26;7.70;;;4.32;;
71937;SDS011;59810;48.800;9.086;2023-06-14T09:06:54;8.40;;;4.90;;
71937;SDS011;59810;48.800;9.086;2023-06-14T09:09:20;9.95;;;5.32;;
71937;SDS011;59810;48.800;9.086;2023-06-14T09:11:50;7.88;;;4.63;;
71937;SDS011;59810;48.800;9.086;2023-06-14T09:14:17;8.60;;;4.93;;
71937;SDS011;59810;48.800;9.086;2023-06-14T09:16:44;7.30;;;4.32;;
71937;SDS011;59810;48.800;9.086;2023-06-14T09:19:13;8.40;;;5.22;;
71937;SDS011;59810;48.800;9.086;2023-06-14T09:21:47;7.50;;;4.40;;
71937;SDS011;59810;48.800;9.086;2023-06-14T09:24:19;13.52;;;4.57;;
71937;SDS011;59810;48.800;9.086;2023-06-14T09:26:48;8.27;;;4.30;;
71937;SDS011;59810;48.800;9.086;2023-06-14T09:29:19;9.70;;;4.82;;
71937;SDS011;59810;48.800;9.086;2023-06-14T09:32:00;8.75;;;4.45;;
71937;SDS011;59810;48.800;9.086;2023-06-14T09:34:33;10.83;;;4.50;;
71937;SDS011;59810;48.800;9.086;2023-06-14T09:37:00;10.23;;;4.30;;
71937;SDS011;59810;48.800;9.086;2023-06-14T09:39:26;7.88;;;4.10;;
71937;SDS011;59810;48.800;9.086;2023-06-14T09:41:52;10.17;;;4.50;;
71937;SDS011;59810;48.800;9.086;2023-06-14T09:44:17;8.35;;;4.38;;
71937;SDS011;59810;48.800;9.086;2023-06-14T09:46:45;7.03;;;4.53;;
71937;SDS011;59810;48.800;9.086;2023-06-14T09:49:11;7.23;;;4.13;;
71937;SDS011;59810;48.800;9.086;2023-06-14T09:51:42;8.10;;;4.15;;
71937;SDS011;59810;48.800;9.086;2023-06-14T09:54:11;12.50;;;4.73;;
71937;SDS011;59810;48.800;9.086;2023-06-14T09:56:41;10.70;;;4.10;;
71937;SDS011;59810;48.800;9.086;2023-06-14T09:59:09;7.88;;;4.00;;
71937;SDS011;59810;48.800;9.086;2023-06-14T10:01:41;8.68;;;4.35;;
71937;SDS011;59810;48.800;9.086;2023-06-14T10:04:08;7.85;;;3.70;;
71937;SDS011;59810;48.800;9.086;2023-06-14T10:06:45;8.37;;;4.03;;
71937;SDS011;59810;48.800;9.086;2023-06-14T10:09:11;8.38;;;4.20;;
71937;SDS011;59810;48.800;9.086;2023-06-14T10:11:37;8.00;;;4.10;;
71937;SDS011;59810;48.800;9.086;2023-06-14T10:14:08;8.40;;;4.10;;
71937;SDS011;59810;48.800;9.086;2023-06-14T10:22:12;9.00;;;3.50;;
71937;SDS011;59810;48.800;9.086;2023-06-14T10:24:57;9.25;;;4.20;;
71937;SDS011;59810;48.800;9.086;2023-06-14T10:27:22;8.60;;;4.40;;
71937;SDS011;59810;48.800;9.086;2023-06-14T10:30:01;10.05;;;4.18;;
71937;SDS011;59810;48.800;9.086;2023-06-14T10:32:27;6.80;;;3.67;;
71937;SDS011;59810;48.800;9.086;2023-06-14T10:34:55;8.80;;;4.28;;
71937;SDS011;59810;48.800;9.086;2023-06-14T10:37:22;7.40;;;3.77;;
71937;SDS011;59810;48.800;9.086;2023-06-14T10:39:47;7.28;;;3.88;;
71937;SDS011;59810;48.800;9.086;2023-06-14T10:42:14;8.45;;;3.97;;
71937;SDS011;59810;48.800;9.086;2023-06-14T10:44:50;8.27;;;4.10;;
71937;SDS011;59810;48.800;9.086;2023-06-14T10:49:53;7.23;;;3.13;;
71937;SDS011;59810;48.800;9.086;2023-06-14T10:52:21;7.25;;;3.60;;
71937;SDS011;59810;48.800;9.086;2023-06-14T10:57:24;9.32;;;3.75;;
71937;SDS011;59810;48.800;9.086;2023-06-14T10:59:50;6.80;;;3.77;;
71937;SDS011;59810;48.800;9.086;2023-06-14T11:05:05;10.73;;;3.90;;
71937;SDS011;59810;48.800;9.086;2023-06-14T11:12:50;9.73;;;3.83;;
71937;SDS011;59810;48.800;9.086;2023-06-14T11:15:18;8.68;;;3.85;;
71937;SDS011;59810;48.800;9.086;2023-06-14T11:17:51;7.43;;;3.77;;
71937;SDS011;59810;48.800;9.086;2023-06-14T11:20:18;7.78;;;3.67;;
71937;SDS011;59810;48.800;9.086;2023-06-14T11:22:45;9.30;;;3.50;;
71937;SDS011;59810;48.800;9.086;2023-06-14T11:25:11;9.45;;;3.65;;
71937;SDS011;59810;48.800;9.086;2023-06-14T11:27:41;7.50;;;3.60;;
71937;SDS011;59810;48.800;9.086;2023-06-14T11:30:07;9.40;;;3.47;;
71937;SDS011;59810;48.800;9.086;2023-06-14T11:32:34;7.53;;;3.30;;
71937;SDS011;59810;48.800;9.086;2023-06-14T11:34:59;9.75;;;4.20;;
71937;SDS011;59810;48.800;9.086;2023-06-14T11:37:25;7.87;;;3.87;;
71937;SDS011;59810;48.800;9.086;2023-06-14T11:39:56;7.35;;;3.78;;
71937;SDS011;59810;48.800;9.086;2023-06-14T11:42:31;7.20;;;3.87;;
71937;SDS011;59810;48.800;9.086;2023-06-14T11:44:56;6.50;;;3.50;;
71937;SDS011;59810;48.800;9.086;2023-06-14T11:47:22;6.87;;;3.30;;
71937;SDS011;59810;48.800;9.086;2023-06-14T11:49:47;7.05;;;3.58;;
71937;SDS011;59810;48.800;9.086;2023-06-14T11:52:13;9.27;;;4.15;;
71937;SDS011;59810;48.800;9.086;2023-06-14T11:54:39;10.23;;;4.13;;
71937;SDS011;59810;48.800;9.086;2023-06-14T11:57:06;7.25;;;3.55;;
71937;SDS011;59810;48.800;9.086;2023-06-14T11:59:37;8.23;;;3.58;;
71937;SDS011;59810;48.800;9.086;2023-06-14T12:02:03;8.10;;;3.92;;
71937;SDS011;59810;48.800;9.086;2023-06-14T12:04:29;8.40;;;3.70;;
71937;SDS011;59810;48.800;9.086;2023-06-14T12:06:55;8.30;;;3.83;;
71937;SDS011;59810;48.800;9.086;2023-06-14T12:09:22;6.30;;;3.90;;
71937;SDS011;59810;48.800;9.086;2023-06-14T12:11:49;5.93;;;3.60;;
71937;SDS011;59810;48.800;9.086;2023-06-14T12:14:17;7.43;;;3.60;;
71937;SDS011;59810;48.800;9.086;2023-06-14T12:16:42;7.37;;;4.27;;
71937;SDS011;59810;48.800;9.086;2023-06-14T12:19:14;8.57;;;3.80;;
71937;SDS011;59810;48.800;9.086;2023-06-14T12:21:41;7.03;;;3.58;;
71937;SDS011;59810;48.800;9.086;2023-06-14T12:24:08;8.68;;;4.20;;
71937;SDS011;59810;48.800;9.086;2023-06-14T12:26:39;7.55;;;3.70;;
71937;SDS011;59810;48.800;9.086;2023-06-14T12:29:06;10.20;;;3.65;;
71937;SDS011;59810;48.800;9.086;2023-06-14T12:31:32;7.83;;;4.10;;
71937;SDS011;59810;48.800;9.086;2023-06-14T12:33:59;8.38;;;3.47;;
71937;SDS011;59810;48.800;9.086;2023-06-14T12:36:25;7.22;;;3.40;;
71937;SDS011;59810;48.800;9.086;2023-06-14T12:38:50;7.87;;;3.77;;
71937;SDS011;59810;48.800;9.086;2023-06-14T12:41:18;8.05;;;3.30;;
71937;SDS011;59810;48.800;9.086;2023-06-14T12:43:47;7.72;;;3.70;;
71937;SDS011;59810;48.800;9.086;2023-06-14T12:46:12;8.03;;;3.67;;
71937;SDS011;59810;48.800;9.086;2023-06-14T12:48:40;9.75;;;4.03;;
71937;SDS011;59810;48.800;9.086;2023-06-14T12:51:05;7.70;;;4.00;;
71937;SDS011;59810;48.800;9.086;2023-06-14T12:53:31;7.77;;;3.80;;
71937;SDS011;59810;48.800;9.086;2023-06-14T12:55:56;6.68;;;3.58;;
71937;SDS011;59810;48.800;9.086;2023-06-14T12:58:22;6.30;;;3.53;;
71937;SDS011;59810;48.800;9.086;2023-06-14T13:00:48;7.45;;;4.22;;
71937;SDS011;59810;48.800;9.086;2023-06-14T13:03:14;7.20;;;3.90;;
71937;SDS011;59810;48.800;9.086;2023-06-14T13:05:42;7.85;;;3.70;;
71937;SDS011;59810;48.800;9.086;2023-06-14T13:08:08;6.10;;;3.83;;
71937;SDS011;59810;48.800;9.086;2023-06-14T13:10:33;8.52;;;4.20;;
71937;SDS011;59810;48.800;9.086;2023-06-14T13:13:02;6.85;;;3.75;;
71937;SDS011;59810;48.800;9.086;2023-06-14T13:15:28;7.40;;;4.03;;
71937;SDS011;59810;48.800;9.086;2023-06-14T13:17:53;7.40;;;3.67;;
71937;SDS011;59810;48.800;9.086;2023-06-14T13:20:18;6.70;;;3.63;;
71937;SDS011;59810;48.800;9.086;2023-06-14T13:22:44;5.93;;;3.27;;
71937;SDS011;59810;48.800;9.086;2023-06-14T13:25:09;9.97;;;4.10;;
71937;SDS011;59810;48.800;9.086;2023-06-14T13:27:35;6.45;;;3.60;;
71937;SDS011;59810;48.800;9.086;2023-06-14T13:30:03;8.97;;;3.37;;
71937;SDS011;59810;48.800;9.086;2023-06-14T13:32:30;7.32;;;3.75;;
71937;SDS011;59810;48.800;9.086;2023-06-14T13:34:56;7.93;;;3.83;;
71937;SDS011;59810;48.800;9.086;2023-06-14T13:37:22;8.68;;;4.10;;
71937;SDS011;59810;48.800;9.086;2023-06-14T13:39:52;6.43;;;3.90;;
71937;SDS011;59810;48.800;9.086;2023-06-14T13:42:18;8.23;;;3.57;;
71937;SDS011;59810;48.800;9.086;2023-06-14T13:44:48;6.28;;;3.92;;
71937;SDS011;59810;48.800;9.086;2023-06-14T13:47:13;7.27;;;3.53;;
71937;SDS011;59810;48.800;9.086;2023-06-14T13:49:41;7.22;;;3.55;;
71937;SDS011;59810;48.800;9.086;2023-06-14T13:52:07;6.57;;;3.60;;
71937;SDS011;59810;48.800;9.086;2023-06-14T13:54:32;6.20;;;3.57;;
71937;SDS011;59810;48.800;9.086;2023-06-14T13:56:58;8.77;;;4.13;;
71937;SDS011;59810;48.800;9.086;2023-06-14T13:59:23;7.97;;;4.10;;
71937;SDS011;59810;48.800;9.086;2023-06-14T14:01:51;6.30;;;3.58;;
71937;SDS011;59810;48.800;9.086;2023-06-14T14:04:16;8.33;;;4.13;;
71937;SDS011;59810;48.800;9.086;2023-06-14T14:06:41;6.80;;;3.77;;
71937;SDS011;59810;48.800;9.086;2023-06-14T14:09:07;6.47;;;3.92;;
71937;SDS011;59810;48.800;9.086;2023-06-14T14:11:33;7.77;;;3.60;;
71937;SDS011;59810;48.800;9.086;2023-06-14T14:13:58;7.10;;;4.10;;
71937;SDS011;59810;48.800;9.086;2023-06-14T14:16:24;6.87;;;3.90;;
71937;SDS011;59810;48.800;9.086;2023-06-14T14:18:52;7.60;;;4.20;;
71937;SDS011;59810;48.800;9.086;2023-06-14T14:21:18;9.07;;;4.50;;
71937;SDS011;59810;48.800;9.086;2023-06-14T14:23:43;7.90;;;4.43;;
71937;SDS011;59810;48.800;9.086;2023-06-14T14:26:10;8.73;;;4.13;;
71937;SDS011;59810;48.800;9.086;2023-06-14T14:28:38;6.80;;;4.10;;
71937;SDS011;59810;48.800;9.086;2023-06-14T14:31:03;6.95;;;4.32;;
71937;SDS011;59810;48.800;9.086;2023-06-14T14:33:29;6.90;;;4.37;;
71937;SDS011;59810;48.800;9.086;2023-06-14T14:35:59;7.20;;;4.43;;
71937;SDS011;59810;48.800;9.086;2023-06-14T14:38:28;6.50;;;4.13;;
71937;SDS011;59810;48.800;9.086;2023-06-14T14:40:54;6.47;;;4.03;;
71937;SDS011;59810;48.800;9.086;2023-06-14T14:43:19;7.10;;;3.90;;
71937;SDS011;59810;48.800;9.086;2023-06-14T14:45:45;8.00;;;4.00;;
71937;SDS011;59810;48.800;9.086;2023-06-14T14:48:10;8.98;;;4.20;;
71937;SDS011;59810;48.800;9.086;2023-06-14T14:50:36;7.20;;;4.00;;
71937;SDS011;59810;48.800;9.086;2023-06-14T14:53:01;7.47;;;4.27;;
71937;SDS011;59810;48.800;9.086;2023-06-14T14:55:27;6.47;;;4.22;;
71937;SDS011;59810;48.800;9.086;2023-06-14T14:57:55;7.40;;;4.05;;
71937;SDS011;59810;48.800;9.086;2023-06-14T15:00:20;7.47;;;4.83;;
71937;SDS011;59810;48.800;9.086;2023-06-14T15:02:46;7.77;;;4.57;;